createdAt,value
2023-02-14T00:02:38.689Z,34.82
2023-02-14T00:05:45.590Z,35.53
2023-02-14T00:08:54.363Z,36.97
2023-02-14T00:12:01.166Z,36.94
2023-02-14T00:15:20.105Z,35.97
2023-02-14T00:18:50.180Z,36.97
2023-02-14T00:21:56.588Z,37.12
2023-02-14T00:25:03.943Z,37.93
2023-02-14T00:28:09.801Z,37.12
2023-02-14T00:31:16.482Z,37.85
2023-02-14T00:34:25.633Z,36.91
2023-02-14T00:37:32.461Z,38.71
2023-02-14T00:40:38.198Z,37.69
2023-02-14T00:43:44.757Z,37.22
2023-02-14T00:46:50.642Z,36.28
2023-02-14T00:50:03.012Z,36.04
2023-02-14T00:53:08.866Z,36.50
2023-02-14T00:56:16.439Z,34.95
2023-02-14T00:59:22.422Z,34.31
2023-02-14T01:02:29.053Z,33.69
2023-02-14T01:05:37.501Z,33.46
2023-02-14T01:08:44.449Z,33.53
2023-02-14T01:11:50.227Z,34.31
2023-02-14T01:14:57.024Z,34.47
2023-02-14T01:18:03.622Z,33.38
2023-02-14T01:21:20.952Z,32.28
2023-02-14T01:24:27.707Z,32.21
2023-02-14T01:27:34.333Z,32.41
2023-02-14T01:30:40.254Z,30.37
2023-02-14T01:33:51.990Z,29.54
2023-02-14T01:37:00.421Z,29.18
2023-02-14T01:40:08.807Z,29.55
2023-02-14T01:43:21.902Z,30.75
2023-02-14T01:46:30.795Z,29.27
2023-02-14T01:49:44.108Z,28.86
2023-02-14T01:53:00.798Z,29.97
2023-02-14T01:56:15.678Z,30.59
2023-02-14T01:59:29.463Z,31.05
2023-02-14T02:02:35.262Z,32.06
2023-02-14T02:05:51.402Z,32.10
2023-02-14T02:09:15.252Z,31.58
2023-02-14T02:12:22.292Z,31.38
2023-02-14T02:15:34.305Z,29.94
2023-02-14T02:19:11.368Z,31.64
2023-02-14T02:23:10.332Z,30.97
2023-02-14T02:27:11.547Z,30.81
2023-02-14T02:31:10.832Z,31.36
2023-02-14T02:35:15.192Z,30.29
2023-02-14T02:38:50.104Z,29.77
2023-02-14T02:42:17.872Z,29.58
2023-02-14T02:46:05.067Z,30.78
2023-02-14T02:49:38.941Z,28.82
2023-02-14T02:53:06.459Z,29.16
2023-02-14T02:56:37.812Z,29.68
2023-02-14T02:59:48.941Z,30.25
2023-02-14T03:03:13.344Z,29.31
2023-02-14T03:06:19.125Z,27.80
2023-02-14T03:10:00.433Z,26.90
2023-02-14T03:13:34.602Z,26.48
2023-02-14T03:17:07.908Z,26.50
2023-02-14T03:20:26.240Z,26.51
2023-02-14T03:23:41.936Z,26.73
2023-02-14T03:27:00.168Z,26.96
2023-02-14T03:30:21.373Z,27.25
2023-02-14T03:33:42.113Z,26.74
2023-02-14T03:36:59.326Z,26.24
2023-02-14T03:40:14.017Z,25.54
2023-02-14T03:43:33.826Z,25.98
2023-02-14T03:46:48.718Z,25.64
2023-02-14T03:50:05.248Z,25.88
2023-02-14T03:53:16.263Z,25.69
2023-02-14T03:56:35.344Z,26.84
2023-02-14T03:59:45.885Z,26.37
2023-02-14T04:03:02.947Z,27.52
2023-02-14T04:06:09.580Z,28.04
2023-02-14T04:09:16.401Z,27.38
2023-02-14T04:12:35.941Z,27.66
2023-02-14T04:15:46.980Z,26.32
2023-02-14T04:19:04.992Z,27.01
2023-02-14T04:22:11.564Z,26.84
2023-02-14T04:25:17.905Z,26.54
2023-02-14T04:28:24.583Z,27.38
2023-02-14T04:31:33.260Z,27.73
2023-02-14T04:34:41.027Z,28.01
2023-02-14T04:37:46.859Z,28.39
2023-02-14T04:40:54.145Z,30.01
2023-02-14T04:43:59.918Z,30.50
2023-02-14T04:47:10.607Z,29.88
2023-02-14T04:50:17.624Z,29.33
2023-02-14T04:53:24.659Z,28.47
2023-02-14T04:56:30.595Z,27.80
2023-02-14T04:59:37.478Z,27.84
2023-02-14T05:02:45.816Z,27.86
2023-02-14T05:05:52.489Z,29.32
2023-02-14T05:08:58.600Z,28.81
2023-02-14T05:12:05.377Z,29.01
2023-02-14T05:15:12.703Z,28.55
2023-02-14T05:18:21.999Z,28.43
2023-02-14T05:21:28.651Z,29.61
2023-02-14T05:24:35.332Z,30.82
2023-02-14T05:27:41.133Z,29.69
2023-02-14T05:30:50.139Z,28.71
2023-02-14T05:33:58.546Z,28.40
2023-02-14T05:37:05.371Z,28.85
2023-02-14T05:40:14.065Z,29.93
2023-02-14T05:43:20.612Z,30.44
2023-02-14T05:46:26.351Z,30.19
2023-02-14T05:49:35.486Z,29.96
2023-02-14T05:52:41.690Z,30.89
2023-02-14T05:55:48.312Z,32.61
2023-02-14T05:58:54.036Z,33.42
2023-02-14T06:02:00.625Z,31.36
2023-02-14T06:05:11.853Z,30.04
2023-02-14T06:08:18.489Z,29.51
2023-02-14T06:11:24.309Z,28.99
2023-02-14T06:14:30.931Z,28.78
2023-02-14T06:17:36.809Z,28.56
2023-02-14T06:20:46.040Z,28.76
2023-02-14T06:23:51.826Z,29.28
2023-02-14T06:26:58.386Z,29.68
2023-02-14T06:30:04.830Z,31.74
2023-02-14T06:33:11.560Z,32.98
2023-02-14T06:36:20.398Z,34.48
2023-02-14T06:39:27.192Z,34.08
2023-02-14T06:42:32.973Z,34.18
2023-02-14T06:45:39.586Z,32.74
2023-02-14T06:48:45.806Z,31.92
2023-02-14T06:51:55.121Z,30.38
2023-02-14T06:55:00.962Z,32.29
2023-02-14T06:58:07.849Z,31.70
2023-02-14T07:01:13.755Z,27.95
2023-02-14T07:04:20.725Z,26.92
2023-02-14T07:07:29.266Z,29.36
2023-02-14T07:10:36.014Z,29.49
2023-02-14T07:13:41.841Z,30.95
2023-02-14T07:16:48.538Z,27.95
2023-02-14T07:19:54.269Z,26.86
2023-02-14T07:23:04.721Z,30.00
2023-02-14T07:26:10.814Z,36.98
2023-02-14T07:29:18.671Z,46.29
2023-02-14T07:32:25.911Z,53.73
2023-02-14T07:35:33.239Z,43.75
2023-02-14T07:38:41.722Z,43.31
2023-02-14T07:41:48.330Z,40.99
2023-02-14T07:44:57.712Z,35.04
2023-02-14T07:48:04.796Z,30.75
2023-02-14T07:51:11.355Z,30.99
2023-02-14T07:54:21.226Z,32.65
2023-02-14T08:00:48.290Z,33.80
2023-02-14T08:03:54.540Z,31.14
2023-02-14T08:07:01.195Z,29.52
2023-02-14T08:10:12.990Z,29.26
2023-02-14T08:13:19.926Z,26.94
2023-02-14T08:16:25.856Z,26.65
2023-02-14T08:19:33.504Z,28.10
2023-02-14T08:22:39.336Z,29.03
2023-02-14T08:25:48.708Z,28.37
2023-02-14T08:28:54.628Z,29.98
2023-02-14T08:32:01.937Z,27.97
2023-02-14T08:35:08.152Z,26.89
2023-02-14T08:38:15.039Z,27.35
2023-02-14T08:41:23.530Z,27.31
2023-02-14T08:44:30.407Z,27.00
2023-02-14T08:47:38.656Z,28.70
2023-02-14T08:50:45.897Z,27.72
2023-02-14T08:53:57.052Z,25.30
2023-02-14T08:57:06.861Z,24.48
2023-02-14T09:00:15.359Z,23.60
2023-02-14T09:03:22.787Z,26.15
2023-02-14T09:06:29.849Z,39.52
2023-02-14T09:09:37.543Z,37.96
2023-02-14T09:12:46.265Z,25.85
2023-02-14T09:15:55.441Z,22.42
2023-02-14T09:19:01.409Z,24.69
2023-02-14T09:22:11.216Z,32.00
2023-02-14T09:25:16.998Z,26.82
2023-02-14T09:28:26.159Z,46.29
2023-02-14T09:31:31.995Z,28.38
2023-02-14T09:34:39.380Z,22.09
2023-02-14T09:37:45.107Z,21.71
2023-02-14T09:40:54.725Z,18.61
2023-02-14T09:44:10.218Z,18.60
2023-02-14T09:47:31.998Z,18.00
2023-02-14T09:50:48.924Z,18.33
2023-02-14T09:54:07.121Z,26.22
2023-02-14T09:57:30.727Z,18.01
2023-02-14T10:00:51.831Z,17.42
2023-02-14T10:04:28.639Z,17.20
2023-02-14T10:07:53.281Z,17.77
2023-02-14T10:11:11.685Z,18.25
2023-02-14T10:14:26.230Z,18.35
2023-02-14T10:17:47.165Z,18.33
2023-02-14T10:21:00.772Z,19.76
2023-02-14T10:24:21.050Z,19.55
2023-02-14T10:27:39.771Z,18.95
2023-02-14T10:31:01.670Z,19.12
2023-02-14T10:34:25.464Z,19.22
2023-02-14T10:38:01.022Z,18.86
2023-02-14T10:41:30.177Z,19.75
2023-02-14T10:44:57.276Z,18.21
2023-02-14T10:48:23.295Z,19.02
2023-02-14T10:51:46.923Z,20.10
2023-02-14T10:55:00.108Z,20.78
2023-02-14T10:58:13.019Z,17.92
2023-02-14T11:01:22.606Z,19.99
2023-02-14T11:04:29.143Z,18.40
2023-02-14T11:07:39.845Z,19.48
2023-02-14T11:10:46.138Z,18.27
2023-02-14T11:13:53.656Z,18.65
2023-02-14T11:17:01.937Z,18.20
2023-02-14T11:20:30.668Z,20.65
2023-02-14T11:23:44.104Z,16.35
2023-02-14T11:26:55.732Z,15.11
2023-02-14T11:30:03.264Z,18.44
2023-02-14T11:33:15.732Z,20.27
2023-02-14T11:36:21.808Z,18.11
2023-02-14T11:39:37.106Z,17.23
2023-02-14T11:42:51.646Z,15.43
2023-02-14T11:46:19.190Z,14.51
2023-02-14T11:49:35.050Z,16.62
2023-02-14T11:52:54.992Z,15.24
2023-02-14T11:56:03.914Z,14.56
2023-02-14T11:59:23.574Z,14.24
2023-02-14T12:02:43.562Z,13.39
2023-02-14T12:05:57.429Z,14.07
2023-02-14T12:09:16.249Z,14.51
2023-02-14T12:12:29.160Z,14.93
2023-02-14T12:15:40.893Z,13.82
2023-02-14T12:19:02.501Z,13.63
2023-02-14T12:22:10.345Z,13.26
2023-02-14T12:25:25.698Z,11.84
2023-02-14T12:28:46.068Z,13.81
2023-02-14T12:31:53.501Z,14.35
2023-02-14T12:35:16.276Z,14.94
2023-02-14T12:38:44.787Z,16.07
2023-02-14T12:42:07.954Z,15.72
2023-02-14T12:45:30.276Z,15.59
2023-02-14T12:49:03.278Z,15.73
2023-02-14T12:52:41.389Z,15.64
2023-02-14T12:56:06.712Z,14.82
2023-02-14T12:59:35.304Z,15.22
2023-02-14T13:03:44.202Z,14.88
2023-02-14T13:07:00.490Z,14.79
2023-02-14T13:10:30.155Z,14.26
2023-02-14T13:14:04.565Z,12.59
2023-02-14T13:17:27.418Z,19.35
2023-02-14T13:20:52.454Z,17.30
2023-02-14T13:24:14.099Z,16.42
2023-02-14T13:27:30.391Z,15.87
2023-02-14T13:30:42.258Z,17.08
2023-02-14T13:33:55.600Z,17.75
2023-02-14T13:37:12.554Z,16.88
2023-02-14T13:40:26.762Z,24.82
2023-02-14T13:43:53.131Z,254.77
2023-02-14T13:47:00.054Z,543.03
2023-02-14T13:50:09.480Z,357.78
2023-02-14T13:53:41.896Z,629.29
2023-02-14T13:56:47.768Z,230.87
2023-02-14T14:00:38.316Z,92.67
2023-02-14T14:04:01.957Z,94.05
2023-02-14T14:07:30.180Z,109.58
2023-02-14T14:10:51.853Z,28.39
2023-02-14T14:14:01.972Z,47.71
2023-02-14T14:17:28.388Z,142.60
2023-02-14T14:20:52.667Z,180.59
2023-02-14T14:24:28.284Z,210.21
2023-02-14T14:27:44.956Z,70.36
2023-02-14T14:30:51.895Z,66.08
2023-02-14T14:34:04.287Z,117.53
2023-02-14T14:37:21.353Z,387.80
2023-02-14T14:40:32.188Z,194.48
2023-02-14T14:43:43.856Z,495.63
2023-02-14T14:46:53.931Z,348.91
2023-02-14T14:50:10.864Z,316.99
2023-02-14T14:53:29.406Z,357.88
2023-02-14T14:56:42.362Z,121.52
2023-02-14T14:59:52.219Z,190.68
2023-02-14T15:03:09.761Z,294.19
2023-02-14T15:06:23.137Z,276.09
2023-02-14T15:09:36.384Z,315.46
2023-02-14T15:12:56.542Z,198.94
2023-02-14T15:16:05.778Z,60.98
2023-02-14T15:19:22.567Z,25.10
2023-02-14T15:22:34.000Z,75.55
2023-02-14T15:25:44.759Z,65.59
2023-02-14T15:29:01.306Z,59.31
2023-02-14T15:32:15.439Z,79.63
2023-02-14T15:35:32.104Z,50.33
2023-02-14T15:38:45.206Z,44.71
2023-02-14T15:41:51.154Z,42.20
2023-02-14T15:45:25.604Z,48.72
2023-02-14T15:48:38.016Z,35.99
2023-02-14T15:51:50.533Z,46.81
2023-02-14T15:54:56.454Z,65.94
2023-02-14T15:58:09.894Z,184.07
2023-02-14T16:01:16.929Z,62.00
2023-02-14T16:04:33.277Z,111.98
2023-02-14T16:07:39.203Z,72.18
2023-02-14T16:10:46.270Z,130.36
2023-02-14T16:13:52.084Z,126.20
2023-02-14T16:17:04.822Z,251.52
2023-02-14T16:20:45.472Z,470.71
2023-02-14T16:24:16.018Z,480.94
2023-02-14T16:27:21.863Z,303.95
2023-02-14T16:30:28.927Z,170.42
2023-02-14T16:33:40.111Z,100.50
2023-02-14T16:36:49.656Z,67.10
2023-02-14T16:39:59.567Z,59.44
2023-02-14T16:43:09.507Z,61.71
2023-02-14T16:46:17.709Z,67.92
2023-02-14T16:49:25.591Z,57.84
2023-02-14T16:52:34.486Z,58.24
2023-02-14T16:55:42.701Z,47.30
2023-02-14T16:58:50.380Z,46.35
2023-02-14T17:02:02.872Z,62.09
2023-02-14T17:05:10.131Z,50.09
2023-02-14T17:08:20.720Z,50.67
2023-02-14T17:11:31.080Z,41.74
2023-02-14T17:14:42.729Z,40.03
2023-02-14T17:17:52.204Z,40.15
2023-02-14T17:20:59.435Z,41.77
2023-02-14T17:24:08.819Z,51.56
2023-02-14T17:27:15.564Z,47.45
2023-02-14T17:30:23.343Z,59.52
2023-02-14T17:33:30.693Z,69.16
2023-02-14T17:36:36.887Z,64.89
2023-02-14T17:39:46.268Z,69.73
2023-02-14T17:42:52.206Z,66.29
2023-02-14T17:45:58.880Z,68.64
2023-02-14T17:49:05.480Z,77.51
2023-02-14T17:52:12.322Z,87.65
2023-02-14T17:55:21.041Z,107.56
2023-02-14T17:58:27.754Z,108.17
2023-02-14T18:01:36.375Z,97.38
2023-02-14T18:04:43.205Z,89.31
2023-02-14T18:07:48.960Z,102.23
2023-02-14T18:10:58.977Z,85.23
2023-02-14T18:14:04.980Z,77.58
2023-02-14T18:17:11.848Z,68.70
2023-02-14T18:20:17.687Z,74.24
2023-02-14T18:23:25.003Z,65.73
2023-02-14T18:26:34.683Z,80.68
2023-02-14T18:29:41.608Z,74.77
2023-02-14T18:32:47.995Z,70.10
2023-02-14T18:35:54.564Z,83.04
2023-02-14T18:39:01.185Z,92.28
2023-02-14T18:42:10.468Z,110.05
2023-02-14T18:45:16.405Z,92.01
2023-02-14T18:48:23.146Z,71.74
2023-02-14T18:51:33.502Z,67.42
2023-02-14T18:54:40.539Z,71.03
2023-02-14T18:57:49.052Z,80.36
2023-02-14T19:00:56.679Z,74.15
2023-02-14T19:04:06.206Z,70.29
2023-02-14T19:07:15.715Z,71.15
2023-02-14T19:10:22.070Z,77.89
2023-02-14T19:13:32.483Z,71.09
2023-02-14T19:16:51.263Z,75.54
2023-02-14T19:20:00.097Z,72.05
2023-02-14T19:23:06.668Z,65.33
2023-02-14T19:26:15.169Z,68.32
2023-02-14T19:29:27.455Z,72.99
2023-02-14T19:32:34.105Z,75.54
2023-02-14T19:35:40.393Z,73.29
2023-02-14T19:38:51.351Z,71.12
2023-02-14T19:41:57.151Z,75.39
2023-02-14T19:45:09.950Z,75.17
2023-02-14T19:48:15.928Z,73.97
2023-02-14T19:51:29.073Z,72.59
2023-02-14T19:54:34.995Z,72.03
2023-02-14T19:57:42.493Z,71.96
2023-02-14T20:00:59.629Z,73.55
2023-02-14T20:04:10.332Z,73.11
2023-02-14T20:07:16.893Z,72.97
2023-02-14T20:10:24.003Z,71.80
2023-02-14T20:13:31.384Z,78.38
2023-02-14T20:16:41.688Z,81.59
2023-02-14T20:19:47.585Z,80.04
2023-02-14T20:22:54.139Z,76.75
2023-02-14T20:26:02.923Z,71.74
2023-02-14T20:29:12.828Z,71.39
2023-02-14T20:32:22.018Z,76.29
2023-02-14T20:35:31.774Z,82.23
2023-02-14T20:38:38.541Z,83.86
2023-02-14T20:41:50.210Z,85.11
2023-02-14T20:44:56.200Z,78.68
2023-02-14T20:48:07.262Z,77.36
2023-02-14T20:51:14.994Z,76.09
2023-02-14T20:54:24.723Z,77.45
2023-02-14T20:57:32.420Z,75.57
2023-02-14T21:00:39.470Z,76.10
2023-02-14T21:03:51.228Z,81.08
2023-02-14T21:07:00.399Z,77.86
2023-02-14T21:10:07.417Z,75.16
2023-02-14T21:13:14.155Z,72.66
2023-02-14T21:16:22.850Z,75.22
2023-02-14T21:19:31.996Z,75.24
2023-02-14T21:22:37.942Z,82.90
2023-02-14T21:25:45.084Z,85.42
2023-02-14T21:29:01.141Z,80.69
2023-02-14T21:32:10.418Z,84.95
2023-02-14T21:35:19.345Z,97.66
2023-02-14T21:38:26.507Z,94.57
2023-02-14T21:41:34.696Z,97.99
2023-02-14T21:44:54.366Z,94.89
2023-02-14T21:48:12.540Z,108.12
2023-02-14T21:51:23.115Z,122.39
2023-02-14T21:54:29.037Z,107.72
2023-02-14T21:57:35.878Z,115.23
2023-02-14T22:00:48.260Z,132.77
2023-02-14T22:03:57.028Z,153.78
2023-02-14T22:07:05.564Z,135.36
2023-02-14T22:10:13.972Z,119.58
2023-02-14T22:13:19.775Z,102.37
2023-02-14T22:16:28.546Z,90.40
2023-02-14T22:19:36.930Z,94.14
2023-02-14T22:22:47.363Z,101.56
2023-02-14T22:25:57.525Z,139.74
2023-02-14T22:29:06.137Z,118.32
2023-02-14T22:32:12.054Z,100.89
2023-02-14T22:35:19.166Z,95.03
2023-02-14T22:38:28.258Z,84.94
2023-02-14T22:41:37.880Z,83.12
2023-02-14T22:44:43.908Z,79.88
2023-02-14T22:47:50.533Z,82.28
2023-02-14T22:50:56.266Z,82.91
2023-02-14T22:54:08.631Z,91.52
2023-02-14T22:57:17.032Z,34.90
2023-02-14T23:00:25.051Z,60.97
2023-02-14T23:03:31.099Z,58.05
2023-02-14T23:06:40.286Z,57.57
2023-02-14T23:09:48.672Z,56.09
2023-02-14T23:13:07.816Z,59.97
2023-02-14T23:16:25.962Z,60.50
2023-02-14T23:19:49.327Z,59.97
2023-02-14T23:22:54.999Z,71.56
2023-02-14T23:26:04.334Z,84.62
2023-02-14T23:29:10.108Z,91.29
2023-02-14T23:32:17.619Z,82.27
2023-02-14T23:35:23.399Z,81.19
2023-02-14T23:38:29.974Z,73.22
2023-02-14T23:41:50.373Z,96.16
2023-02-14T23:45:17.004Z,59.92
2023-02-14T23:48:22.798Z,83.96
2023-02-14T23:51:29.367Z,89.67
2023-02-14T23:54:35.842Z,101.82
2023-02-14T23:57:44.959Z,92.57
